createdAt,value
2022-09-06T00:09:23.753Z,983.6
2022-09-06T00:23:54.005Z,983.4
2022-09-06T00:38:19.155Z,983.3
2022-09-06T00:52:47.618Z,983.3
2022-09-06T01:07:14.285Z,983.5
2022-09-06T01:21:42.284Z,984.1
2022-09-06T01:36:09.242Z,984.3
2022-09-06T01:50:38.530Z,984.3
2022-09-06T02:05:12.280Z,984
2022-09-06T02:19:39.689Z,983.9
2022-09-06T02:34:02.258Z,984
2022-09-06T02:48:31.376Z,983.7
2022-09-06T03:03:01.233Z,983.9
2022-09-06T03:17:28.843Z,983.7
2022-09-06T03:32:01.353Z,983.7
2022-09-06T03:46:30.345Z,983.7
2022-09-06T04:00:55.238Z,983.6
2022-09-06T04:15:24.180Z,983.5
2022-09-06T04:29:52.543Z,983.3
2022-09-06T04:44:19.994Z,983.3
2022-09-06T04:58:49.428Z,983.5
2022-09-06T05:13:23.282Z,983.3
2022-09-06T05:27:52.795Z,983.5
2022-09-06T05:42:19.766Z,983.6
2022-09-06T05:56:45.515Z,983.6
2022-09-06T06:11:17.291Z,983.6
2022-09-06T06:25:43.681Z,983.6
2022-09-06T06:40:13.293Z,983.6
2022-09-06T06:54:42.231Z,983.5
2022-09-06T07:09:11.936Z,983.6
2022-09-06T07:24:13.289Z,983.6
2022-09-06T07:38:41.886Z,983.4
2022-09-06T07:53:26.183Z,983.5
2022-09-06T08:08:57.996Z,983.5
2022-09-06T08:23:14.378Z,983.4
2022-09-06T08:37:37.014Z,983.5
2022-09-06T08:52:11.529Z,983.5
2022-09-06T09:06:44.010Z,983.3
2022-09-06T09:21:08.674Z,983.2
2022-09-06T09:35:35.938Z,983.1
2022-09-06T09:49:55.394Z,983
2022-09-06T10:04:52.411Z,982.8
2022-09-06T10:19:03.709Z,982.7
2022-09-06T10:33:31.243Z,982.6
2022-09-06T10:48:00.535Z,982.7
2022-09-06T11:02:27.573Z,982.6
2022-09-06T11:16:56.480Z,982.5
2022-09-06T11:32:25.331Z,982.5
2022-09-06T11:46:27.949Z,982.5
2022-09-06T12:00:56.229Z,982.3
2022-09-06T12:15:23.932Z,982.2
2022-09-06T12:29:51.127Z,982.1
2022-09-06T12:44:19.116Z,982
2022-09-06T12:58:48.278Z,981.9
2022-09-06T13:13:15.928Z,981.8
2022-09-06T13:27:43.983Z,981.7
2022-09-06T13:42:18.054Z,981.7
2022-09-06T13:56:48.722Z,981.7
2022-09-06T14:11:11.901Z,981.7
2022-09-06T14:25:40.383Z,981.6
2022-09-06T14:40:08.235Z,981.4
2022-09-06T14:54:40.550Z,981.3
2022-09-06T15:09:12.079Z,981.2
2022-09-06T15:23:38.026Z,981
2022-09-06T15:38:04.540Z,980.8
2022-09-06T15:52:33.465Z,980.6
2022-09-06T16:07:01.594Z,980.6
2022-09-06T16:21:29.375Z,980.7
2022-09-06T16:35:57.693Z,980.7
2022-09-06T16:50:24.083Z,980.7
2022-09-06T17:04:51.287Z,980.7
2022-09-06T17:19:24.941Z,980.7
2022-09-06T17:33:47.568Z,980.6
2022-09-06T17:48:18.385Z,980.4
2022-09-06T18:02:42.277Z,980.6
2022-09-06T18:17:08.388Z,980.7
2022-09-06T18:31:35.424Z,980.7
2022-09-06T18:46:04.144Z,980.8
2022-09-06T19:00:37.827Z,980.8
2022-09-06T19:15:07.559Z,981
2022-09-06T19:29:30.959Z,981
2022-09-06T19:43:56.539Z,980.7
2022-09-06T19:58:24.900Z,980.5
2022-09-06T20:12:55.767Z,980.3
2022-09-06T20:27:25.810Z,980.5
2022-09-06T20:41:48.047Z,980.6
2022-09-06T20:56:16.570Z,980.7
2022-09-06T21:10:44.618Z,980.9
2022-09-06T21:25:11.478Z,981.3
2022-09-06T21:39:37.831Z,981.2
2022-09-06T21:54:05.346Z,980.9
2022-09-06T22:08:33.514Z,980.6
2022-09-06T22:23:01.532Z,980.2
2022-09-06T22:37:29.815Z,979.6
2022-09-06T22:51:57.854Z,979.1
2022-09-06T23:06:26.519Z,978.8
2022-09-06T23:20:53.846Z,979.4
2022-09-06T23:35:22.012Z,979.9
2022-09-06T23:49:55.801Z,979.8
